Time;durP1;ratioP1;P1;durP2;ratioP2;P2;SDS_P1;SDS_P2;PMS_P1;PMS_P2;Temp;Humidity;BMP_temperature;BMP_pressure;BME280_temperature;BME280_humidity;BME280_pressure;Samples;Min_cycle;Max_cycle;Signal;HPM_P1;HPM_P2
2021/03/03 00:01:53;;;;;;;172.82;86.93;;;154.20;1638.40;;;;;;4919214;29;20036;-75
2021/03/03 00:04:19;;;;;;;180.77;85.28;;;154.20;1638.40;;;;;;4919292;29;20505;-75
2021/03/03 00:06:45;;;;;;;170.90;84.13;;;154.20;1638.40;;;;;;4918729;29;20047;-75
2021/03/03 00:09:10;;;;;;;163.98;83.03;;;154.20;1638.40;;;;;;4917927;29;20083;-75
2021/03/03 00:11:36;;;;;;;164.13;83.95;;;154.20;1638.40;;;;;;4918546;29;20031;-76
2021/03/03 00:14:02;;;;;;;169.07;87.47;;;154.10;1638.40;;;;;;4918022;29;20060;-65
2021/03/03 00:16:28;;;;;;;159.45;81.50;;;154.10;1638.40;;;;;;4917226;29;20039;-75
2021/03/03 00:18:53;;;;;;;149.85;78.43;;;154.10;1638.40;;;;;;4917939;29;20087;-76
2021/03/03 00:21:19;;;;;;;141.10;73.82;;;154.10;1664.00;;;;;;4918041;29;20025;-78
2021/03/03 00:23:45;;;;;;;132.88;69.18;;;154.00;1664.00;;;;;;4917628;29;20431;-73
2021/03/03 00:26:10;;;;;;;143.77;72.00;;;154.00;1664.00;;;;;;4917551;29;20099;-76
2021/03/03 00:28:36;;;;;;;130.60;69.63;;;154.00;1664.00;;;;;;4917179;29;20036;-76
2021/03/03 00:31:02;;;;;;;132.43;68.97;;;154.00;1664.00;;;;;;4917884;29;20054;-65
2021/03/03 00:33:28;;;;;;;132.10;70.05;;;154.00;1664.00;;;;;;4917405;29;20052;-75
2021/03/03 00:35:54;;;;;;;137.65;70.63;;;153.90;1664.00;;;;;;4917491;29;20382;-66
2021/03/03 00:38:19;;;;;;;132.38;70.03;;;153.90;1664.00;;;;;;4917599;29;20024;-76
2021/03/03 00:40:45;;;;;;;125.22;66.97;;;153.90;1664.00;;;;;;4917323;29;20032;-73
2021/03/03 00:43:11;;;;;;;128.25;67.30;;;153.90;1689.60;;;;;;4917726;29;20032;-65
2021/03/03 00:45:37;;;;;;;116.95;64.85;;;153.90;1664.00;;;;;;4917751;29;20025;-68
2021/03/03 00:48:03;;;;;;;130.63;66.75;;;153.80;1664.00;;;;;;4917306;29;20047;-74
2021/03/03 00:50:29;;;;;;;136.48;69.93;;;153.80;1664.00;;;;;;4916868;29;20040;-75
2021/03/03 00:52:54;;;;;;;129.07;68.43;;;153.80;1689.60;;;;;;4917139;29;20028;-75
2021/03/03 00:55:20;;;;;;;127.60;67.50;;;153.80;1664.00;;;;;;4916527;29;20061;-75
2021/03/03 00:57:46;;;;;;;135.00;67.80;;;153.80;1689.60;;;;;;4917266;29;20423;-77
2021/03/03 01:00:12;;;;;;;123.75;65.10;;;153.80;1689.60;;;;;;4917635;29;20428;-73
2021/03/03 01:02:38;;;;;;;130.07;66.82;;;153.70;1689.60;;;;;;4916970;29;20039;-74
2021/03/03 01:05:05;;;;;;;129.05;66.75;;;153.70;1689.60;;;;;;4900065;29;20036;-77
2021/03/03 01:07:30;;;;;;;125.55;66.13;;;153.70;1689.60;;;;;;4916990;29;20443;-78
2021/03/03 01:09:56;;;;;;;125.75;65.15;;;153.70;1689.60;;;;;;4917021;29;20036;-76
2021/03/03 01:12:22;;;;;;;129.18;67.85;;;153.70;1689.60;;;;;;4917149;29;20028;-77
2021/03/03 01:14:48;;;;;;;128.57;65.15;;;153.60;1689.60;;;;;;4916878;29;20432;-75
2021/03/03 01:17:13;;;;;;;125.50;65.88;;;153.60;1689.60;;;;;;4916530;29;20036;-79
2021/03/03 01:19:39;;;;;;;122.30;66.22;;;153.60;1689.60;;;;;;4917100;29;20036;-76
2021/03/03 01:22:05;;;;;;;123.60;66.85;;;153.60;1689.60;;;;;;4917006;29;20462;-78
2021/03/03 01:24:31;;;;;;;130.13;67.55;;;153.60;1689.60;;;;;;4916968;29;20039;-79
2021/03/03 01:26:56;;;;;;;129.65;67.65;;;153.60;1689.60;;;;;;4917187;29;20148;-78
2021/03/03 01:29:22;;;;;;;133.18;67.75;;;153.60;1664.00;;;;;;4917211;29;20066;-72
2021/03/03 01:31:48;;;;;;;135.85;68.18;;;128.90;1664.00;;;;;;4916619;29;20024;-71
2021/03/03 01:34:13;;;;;;;127.93;67.55;;;128.90;1689.60;;;;;;4916461;29;20107;-75
2021/03/03 01:36:39;;;;;;;125.57;65.93;;;128.90;1689.60;;;;;;4915757;29;20064;-70
2021/03/03 01:39:05;;;;;;;122.78;61.88;;;128.90;1689.60;;;;;;4916331;29;20541;-71
2021/03/03 01:41:31;;;;;;;117.25;61.78;;;128.80;1689.60;;;;;;4916044;29;20039;-72
2021/03/03 01:43:57;;;;;;;116.50;60.33;;;128.80;1689.60;;;;;;4916890;29;20501;-73
2021/03/03 01:46:23;;;;;;;115.18;60.80;;;128.80;1689.60;;;;;;4916250;29;20493;-72
2021/03/03 01:48:48;;;;;;;120.57;61.67;;;128.80;1689.60;;;;;;4917499;29;20043;-69
2021/03/03 01:51:15;;;;;;;115.90;60.42;;;128.80;1689.60;;;;;;4917765;29;20546;-69
2021/03/03 01:53:41;;;;;;;113.65;60.72;;;128.80;1689.60;;;;;;4917771;29;20378;-67
2021/03/03 01:56:07;;;;;;;115.03;58.63;;;128.80;1689.60;;;;;;4917543;29;20029;-70
2021/03/03 01:58:33;;;;;;;115.60;60.60;;;128.80;1689.60;;;;;;4917457;29;20091;-73
2021/03/03 02:00:59;;;;;;;112.05;58.80;;;128.70;1689.60;;;;;;4917547;29;20423;-73
2021/03/03 02:03:24;;;;;;;107.97;58.30;;;128.70;1715.20;;;;;;4917567;29;20036;-73
2021/03/03 02:05:58;;;;;;;105.53;55.53;;;128.70;1715.20;;;;;;4917350;29;20071;-72
2021/03/03 02:08:35;;;;;;;110.85;59.00;;;128.70;1689.60;;;;;;4917354;29;20377;-76
2021/03/03 02:11:04;;;;;;;113.70;57.00;;;128.70;1689.60;;;;;;4917478;29;20493;-76
2021/03/03 02:13:34;;;;;;;106.30;58.03;;;128.60;1715.20;;;;;;4917486;29;20490;-72
2021/03/03 02:16:04;;;;;;;108.60;59.70;;;128.60;1689.60;;;;;;4917143;29;20028;-72
2021/03/03 02:18:32;;;;;;;124.82;63.13;;;128.60;1689.60;;;;;;4917308;29;20039;-72
2021/03/03 02:21:25;;;;;;;125.32;59.88;;;128.60;1689.60;;;;;;4916517;29;20024;-72
2021/03/03 02:24:14;;;;;;;116.65;61.55;;;128.60;1715.20;;;;;;4917259;29;20075;-71
2021/03/03 02:27:00;;;;;;;121.35;59.83;;;128.60;1715.20;;;;;;4822526;29;20041;-71
2021/03/03 02:29:28;;;;;;;117.40;60.80;;;128.50;1715.20;;;;;;4822278;29;20497;-71
2021/03/03 02:31:54;;;;;;;111.72;57.97;;;128.50;1715.20;;;;;;4823346;29;20114;-70
2021/03/03 02:34:23;;;;;;;114.97;57.38;;;128.50;1715.20;;;;;;4825762;29;20069;-69
2021/03/03 02:36:51;;;;;;;118.07;60.45;;;128.50;1715.20;;;;;;4825695;29;20030;-71
2021/03/03 02:39:21;;;;;;;126.03;62.08;;;128.50;1715.20;;;;;;4825589;29;20469;-71
2021/03/03 02:41:47;;;;;;;121.07;59.95;;;128.40;1715.20;;;;;;4826029;29;20156;-70
2021/03/03 02:44:13;;;;;;;110.05;57.03;;;128.40;1715.20;;;;;;4825512;29;20042;-71
2021/03/03 02:46:43;;;;;;;137.85;65.22;;;128.40;1715.20;;;;;;4825617;29;20042;-71
2021/03/03 02:49:10;;;;;;;146.50;72.47;;;128.40;1715.20;;;;;;4825444;29;20038;-71
2021/03/03 02:51:36;;;;;;;147.27;72.03;;;128.40;1715.20;;;;;;4825503;29;20481;-71
2021/03/03 02:54:02;;;;;;;141.52;71.55;;;128.40;1715.20;;;;;;4825501;29;20041;-71
2021/03/03 02:56:31;;;;;;;149.82;74.97;;;128.40;1715.20;;;;;;4825508;29;20460;-71
2021/03/03 02:59:01;;;;;;;148.95;75.55;;;128.40;1715.20;;;;;;4825518;29;20035;-72
2021/03/03 03:01:27;;;;;;;137.98;73.32;;;128.40;1715.20;;;;;;4825172;29;20026;-72
2021/03/03 03:04:02;;;;;;;138.93;72.90;;;128.40;1715.20;;;;;;4882904;29;20131;-72
2021/03/03 03:06:35;;;;;;;137.65;72.45;;;128.40;1715.20;;;;;;4920395;29;20116;-72
2021/03/03 03:09:07;;;;;;;123.45;66.55;;;128.40;1715.20;;;;;;4920389;29;20394;-72
2021/03/03 03:11:37;;;;;;;129.98;68.65;;;128.40;1715.20;;;;;;4920275;29;20038;-72
2021/03/03 03:14:13;;;;;;;134.48;68.80;;;128.30;1715.20;;;;;;4920365;29;20114;-71
2021/03/03 03:16:40;;;;;;;132.20;69.28;;;128.30;1715.20;;;;;;4919787;29;20533;-72
2021/03/03 03:19:12;;;;;;;131.05;68.50;;;128.20;1715.20;;;;;;4919967;29;20039;-74
2021/03/03 03:21:40;;;;;;;139.45;69.03;;;128.20;1715.20;;;;;;4920071;29;20020;-72
2021/03/03 03:24:07;;;;;;;140.25;70.68;;;128.20;1740.80;;;;;;4919933;29;20024;-73
2021/03/03 03:26:36;;;;;;;146.80;74.95;;;128.10;1740.80;;;;;;4919909;29;20036;-72
2021/03/03 03:29:01;;;;;;;145.23;75.70;;;128.10;1740.80;;;;;;4919699;29;20047;-74
2021/03/03 03:31:27;;;;;;;142.38;71.13;;;128.10;1740.80;;;;;;4919636;29;20373;-73
2021/03/03 03:33:54;;;;;;;128.27;67.15;;;128.00;1740.80;;;;;;4919695;29;20087;-75
2021/03/03 03:36:20;;;;;;;134.40;67.35;;;128.10;1740.80;;;;;;4919900;29;20025;-75
2021/03/03 03:38:46;;;;;;;123.90;67.40;;;128.00;1740.80;;;;;;4919809;29;20024;-75
2021/03/03 03:41:14;;;;;;;124.45;66.80;;;128.00;1740.80;;;;;;4919970;29;20020;-75
2021/03/03 03:43:41;;;;;;;129.02;66.50;;;128.00;1740.80;;;;;;4919731;29;20021;-75
2021/03/03 03:46:08;;;;;;;122.30;64.53;;;128.00;1740.80;;;;;;4919587;29;20115;-73
2021/03/03 03:48:37;;;;;;;126.55;66.40;;;128.00;1740.80;;;;;;4919515;29;20044;-73
2021/03/03 03:51:06;;;;;;;126.53;65.80;;;103.30;1715.20;;;;;;4919688;29;20028;-73
2021/03/03 03:53:33;;;;;;;126.68;64.90;;;103.30;1715.20;;;;;;4919494;29;20036;-74
2021/03/03 03:55:59;;;;;;;131.65;66.00;;;103.30;1715.20;;;;;;4919173;29;20053;-75
2021/03/03 03:58:25;;;;;;;122.93;65.85;;;128.00;1740.80;;;;;;4919193;29;20390;-74
2021/03/03 04:00:51;;;;;;;126.97;66.07;;;103.30;1715.20;;;;;;4919668;29;20028;-73
2021/03/03 04:03:17;;;;;;;132.40;66.07;;;103.30;1715.20;;;;;;4919285;29;20031;-73
2021/03/03 04:05:43;;;;;;;129.10;68.43;;;103.30;1715.20;;;;;;4918940;29;20028;-71
2021/03/03 04:08:09;;;;;;;125.47;66.68;;;103.30;1715.20;;;;;;4919176;29;20025;-73
2021/03/03 04:10:35;;;;;;;137.90;69.07;;;103.30;1715.20;;;;;;4919260;29;20500;-73
2021/03/03 04:13:00;;;;;;;129.55;67.28;;;103.30;1715.20;;;;;;4919133;29;20030;-72
2021/03/03 04:15:26;;;;;;;144.40;69.65;;;103.30;1740.80;;;;;;4918883;29;20087;-73
2021/03/03 04:17:53;;;;;;;150.30;71.28;;;103.20;1740.80;;;;;;4919024;29;20055;-72
2021/03/03 04:20:19;;;;;;;137.85;70.75;;;103.20;1740.80;;;;;;4918888;29;20028;-73
2021/03/03 04:22:46;;;;;;;135.68;70.95;;;103.20;1740.80;;;;;;4918840;29;20043;-71
2021/03/03 04:25:15;;;;;;;145.02;74.20;;;103.20;1740.80;;;;;;4918748;29;20024;-73
2021/03/03 04:27:41;;;;;;;138.40;72.78;;;103.20;1740.80;;;;;;4918848;29;20024;-71
2021/03/03 04:30:10;;;;;;;149.15;74.22;;;103.20;1740.80;;;;;;4918738;29;20036;-74
2021/03/03 04:32:36;;;;;;;144.38;75.30;;;103.10;1740.80;;;;;;4918633;29;20060;-73
2021/03/03 04:35:02;;;;;;;139.88;74.68;;;103.10;1740.80;;;;;;4918095;29;20074;-73
2021/03/03 04:37:28;;;;;;;145.25;73.75;;;103.10;1740.80;;;;;;4918131;29;20020;-73
2021/03/03 04:39:54;;;;;;;141.18;71.60;;;103.10;1740.80;;;;;;4918439;29;20110;-73
2021/03/03 04:42:20;;;;;;;148.60;72.63;;;103.10;1740.80;;;;;;4918602;29;20538;-74
2021/03/03 04:44:45;;;;;;;141.35;71.25;;;103.10;1740.80;;;;;;4918567;29;20060;-74
2021/03/03 04:47:11;;;;;;;137.95;71.07;;;103.10;1740.80;;;;;;4918054;29;20115;-73
2021/03/03 04:49:37;;;;;;;149.73;76.65;;;103.10;1740.80;;;;;;4918218;29;20036;-73
2021/03/03 04:52:03;;;;;;;150.52;76.88;;;103.10;1740.80;;;;;;4918245;29;20059;-74
2021/03/03 04:54:29;;;;;;;154.45;79.18;;;103.10;1715.20;;;;;;4917676;29;20035;-72
2021/03/03 04:56:55;;;;;;;158.52;78.32;;;103.10;1740.80;;;;;;4918328;29;20028;-73
2021/03/03 04:59:21;;;;;;;150.05;76.18;;;103.10;1740.80;;;;;;4918281;29;20043;-74
2021/03/03 05:01:47;;;;;;;163.05;78.10;;;103.00;1740.80;;;;;;4917662;29;20474;-73
2021/03/03 05:04:13;;;;;;;144.60;73.95;;;103.00;1740.80;;;;;;4918097;29;20029;-72
2021/03/03 05:06:38;;;;;;;142.98;75.20;;;103.00;1740.80;;;;;;4918275;29;20360;-73
2021/03/03 05:09:04;;;;;;;141.23;73.10;;;103.00;1740.80;;;;;;4918064;29;20371;-74
2021/03/03 05:11:30;;;;;;;145.57;76.30;;;103.00;1740.80;;;;;;4918095;29;20083;-72
2021/03/03 05:13:56;;;;;;;156.43;77.05;;;103.00;1740.80;;;;;;4918054;29;20084;-73
2021/03/03 05:16:21;;;;;;;161.63;75.05;;;103.00;1740.80;;;;;;4917945;29;20395;-72
2021/03/03 05:18:47;;;;;;;156.40;76.60;;;103.00;1740.80;;;;;;4900871;29;20124;-73
2021/03/03 05:21:13;;;;;;;161.32;77.35;;;103.00;1740.80;;;;;;4917987;29;20047;-73
2021/03/03 05:23:39;;;;;;;160.90;79.05;;;103.00;1740.80;;;;;;4917955;29;20092;-70
2021/03/03 05:26:05;;;;;;;165.82;81.38;;;102.90;1740.80;;;;;;4917467;29;20032;-73
2021/03/03 05:28:32;;;;;;;166.85;82.78;;;102.90;1740.80;;;;;;4917896;29;20127;-74
2021/03/03 05:30:58;;;;;;;158.43;81.03;;;102.90;1740.80;;;;;;4917864;29;20032;-74
2021/03/03 05:33:34;;;;;;;170.18;83.15;;;102.90;1740.80;;;;;;4917497;29;20059;-73
2021/03/03 05:36:05;;;;;;;175.63;83.85;;;103.00;1740.80;;;;;;4917792;29;20079;-73
2021/03/03 05:38:34;;;;;;;169.63;83.80;;;103.00;1740.80;;;;;;4917690;29;20390;-73
2021/03/03 05:41:00;;;;;;;173.35;80.85;;;103.00;1740.80;;;;;;4917774;29;20032;-73
2021/03/03 05:43:29;;;;;;;157.35;78.97;;;103.00;1766.40;;;;;;4917616;29;20378;-72
2021/03/03 05:45:57;;;;;;;146.23;78.35;;;103.00;1766.40;;;;;;4917507;29;20028;-74
2021/03/03 05:48:23;;;;;;;147.23;83.95;;;103.00;1766.40;;;;;;4917447;29;20063;-73
2021/03/03 05:51:08;;;;;;;210.73;108.38;;;103.00;1766.40;;;;;;4917563;29;20029;-73
2021/03/03 05:53:34;;;;;;;167.02;90.70;;;103.10;1766.40;;;;;;4917394;29;20039;-72
2021/03/03 05:56:08;;;;;;;154.38;87.68;;;103.10;1766.40;;;;;;4917483;29;20034;-74
2021/03/03 05:58:37;;;;;;;197.03;104.30;;;103.10;1766.40;;;;;;4917399;29;20020;-73
2021/03/03 06:01:05;;;;;;;165.23;91.40;;;103.10;1792.00;;;;;;4917414;29;20470;-73
2021/03/03 06:03:31;;;;;;;149.85;83.00;;;103.10;1792.00;;;;;;4917397;29;20052;-73
2021/03/03 06:05:57;;;;;;;150.13;82.50;;;103.10;1792.00;;;;;;4917530;29;20549;-73
2021/03/03 06:08:25;;;;;;;173.10;86.72;;;103.10;1792.00;;;;;;4921036;29;20119;-73
2021/03/03 06:10:51;;;;;;;172.38;87.25;;;103.20;1792.00;;;;;;4921061;29;20024;-73
2021/03/03 06:13:18;;;;;;;165.13;85.53;;;103.20;1817.60;;;;;;4921062;29;20100;-73
2021/03/03 06:15:45;;;;;;;153.95;82.38;;;103.20;1817.60;;;;;;4921100;29;20083;-74
2021/03/03 06:18:13;;;;;;;167.65;82.32;;;103.30;1817.60;;;;;;4921070;29;20052;-73
2021/03/03 06:21:05;;;;;;;189.57;88.97;;;103.30;1817.60;;;;;;4921219;29;20024;-73
2021/03/03 06:23:31;;;;;;;220.30;99.75;;;128.00;1843.20;;;;;;4826053;29;20039;-73
2021/03/03 06:26:03;;;;;;;205.90;94.97;;;128.10;1868.80;;;;;;4825951;29;20042;-72
2021/03/03 06:28:32;;;;;;;203.77;90.38;;;128.10;1843.20;;;;;;4825887;29;20046;-74
2021/03/03 06:30:59;;;;;;;192.40;89.82;;;128.20;1843.20;;;;;;4825861;29;20062;-73
2021/03/03 06:33:25;;;;;;;184.43;88.28;;;128.20;1843.20;;;;;;4825641;29;20058;-72
2021/03/03 06:35:52;;;;;;;156.02;79.90;;;128.30;1868.80;;;;;;4825894;29;20084;-74
2021/03/03 06:38:27;;;;;;;141.82;74.30;;;128.30;1868.80;;;;;;4825587;29;20029;-74
2021/03/03 06:40:54;;;;;;;133.05;65.50;;;128.30;1843.20;;;;;;4825572;29;20081;-73
2021/03/03 06:43:22;;;;;;;107.97;58.92;;;128.40;1868.80;;;;;;4825336;29;20117;-73
2021/03/03 06:45:48;;;;;;;111.35;57.47;;;128.40;1843.20;;;;;;4825468;29;20066;-73
2021/03/03 06:48:13;;;;;;;99.45;54.10;;;128.40;1843.20;;;;;;4825375;29;20528;-73
2021/03/03 06:50:40;;;;;;;107.15;52.42;;;128.50;1868.80;;;;;;4825617;29;20038;-73
2021/03/03 06:53:07;;;;;;;97.47;52.42;;;128.50;1843.20;;;;;;4825599;29;20030;-70
2021/03/03 06:55:49;;;;;;;94.80;48.17;;;128.60;1843.20;;;;;;4825529;29;20030;-73
2021/03/03 06:58:29;;;;;;;83.97;46.50;;;128.70;1868.80;;;;;;4825457;29;20033;-73
2021/03/03 07:00:57;;;;;;;87.97;46.15;;;128.70;1843.20;;;;;;4891745;29;20039;-74
2021/03/03 07:03:34;;;;;;;80.68;43.45;;;128.80;1843.20;;;;;;4920569;29;20102;-73
2021/03/03 07:06:04;;;;;;;69.25;41.75;;;128.90;1843.20;;;;;;4920472;29;20076;-74
2021/03/03 07:08:30;;;;;;;77.57;41.67;;;153.60;1843.20;;;;;;4920284;29;20036;-73
2021/03/03 07:10:56;;;;;;;70.93;41.00;;;153.70;1817.60;;;;;;4919903;29;20107;-73
2021/03/03 07:13:41;;;;;;;67.65;37.60;;;153.90;1817.60;;;;;;4920254;29;20032;-73
2021/03/03 07:16:08;;;;;;;74.55;39.47;;;154.00;1817.60;;;;;;4920064;29;20052;-74
2021/03/03 07:18:36;;;;;;;65.70;38.85;;;154.10;1817.60;;;;;;4919306;29;20522;-74
2021/03/03 07:21:03;;;;;;;65.43;35.17;;;154.20;1817.60;;;;;;4920110;29;20107;-74
2021/03/03 07:23:48;;;;;;;62.70;36.45;;;154.40;1817.60;;;;;;4920051;29;20083;-74
2021/03/03 07:26:16;;;;;;;62.50;34.97;;;179.30;1792.00;;;;;;4919887;29;20043;-73
2021/03/03 07:28:42;;;;;;;66.35;36.53;;;179.50;1766.40;;;;;;4919658;29;20467;-74
2021/03/03 07:31:09;;;;;;;74.57;39.83;;;179.80;1740.80;;;;;;4919825;29;20028;-74
2021/03/03 07:33:35;;;;;;;73.90;38.72;;;180.10;1740.80;;;;;;4919545;29;20410;-73
2021/03/03 07:36:03;;;;;;;59.42;35.13;;;205.00;1715.20;;;;;;4918127;29;20036;-73
2021/03/03 07:38:36;;;;;;;63.03;35.80;;;205.20;1689.60;;;;;;4919826;29;20024;-74
2021/03/03 07:41:04;;;;;;;53.55;33.45;;;205.50;1664.00;;;;;;4919785;29;20055;-74
2021/03/03 07:43:31;;;;;;;48.88;30.42;;;205.70;1664.00;;;;;;4919352;29;20039;-73
2021/03/03 07:46:01;;;;;;;48.63;29.73;;;230.50;1638.40;;;;;;4919640;29;20032;-74
2021/03/03 07:48:28;;;;;;;45.55;28.27;;;230.70;1638.40;;;;;;4919374;29;20032;-75
2021/03/03 07:50:54;;;;;;;52.65;28.73;;;231.00;1638.40;;;;;;4919508;29;20470;-74
2021/03/03 07:53:20;;;;;;;43.40;27.63;;;231.20;1612.80;;;;;;4919501;29;20031;-73
2021/03/03 07:55:46;;;;;;;47.65;29.15;;;256.20;1587.20;;;;;;4918715;29;20032;-75
2021/03/03 07:58:12;;;;;;;44.10;26.27;;;256.50;1561.60;;;;;;4919806;29;20103;-74
2021/03/03 08:00:42;;;;;;;46.28;26.70;;;281.60;1536.00;;;;;;4919227;29;20115;-74
2021/03/03 08:03:08;;;;;;;41.85;27.02;;;281.90;1510.40;;;;;;4919385;29;20053;-74
2021/03/03 08:05:39;;;;;;;38.75;24.08;;;282.30;1510.40;;;;;;4918886;29;20024;-74
2021/03/03 08:08:12;;;;;;;46.65;25.50;;;307.20;1484.80;;;;;;4902348;29;20032;-74
2021/03/03 08:10:39;;;;;;;56.95;27.05;;;307.50;1459.20;;;;;;4919291;29;20044;-73
2021/03/03 08:13:07;;;;;;;64.18;30.63;;;307.80;1433.60;;;;;;4918981;29;20027;-74
2021/03/03 08:15:48;;;;;;;68.28;33.50;;;308.10;1408.00;;;;;;4919180;29;20032;-74
2021/03/03 08:18:14;;;;;;;54.05;28.70;;;333.00;1408.00;;;;;;4919070;29;20463;-74
2021/03/03 08:20:46;;;;;;;56.33;27.65;;;333.30;1382.40;;;;;;4918826;29;20032;-75
2021/03/03 08:23:32;;;;;;;68.38;31.23;;;333.50;1382.40;;;;;;4918782;29;20032;-74
2021/03/03 08:25:58;;;;;;;86.00;39.00;;;358.40;1356.80;;;;;;4918626;29;20036;-74
2021/03/03 08:28:25;;;;;;;83.00;38.30;;;358.70;1356.80;;;;;;4918202;29;20042;-74
2021/03/03 08:31:09;;;;;;;51.40;29.05;;;358.90;1331.20;;;;;;4914990;29;20112;-73
2021/03/03 08:33:43;;;;;;;56.10;27.15;;;359.10;1280.00;;;;;;4916599;29;20083;-72
2021/03/03 08:36:31;;;;;;;44.40;24.13;;;384.00;1254.40;;;;;;4916019;29;20036;-68
2021/03/03 08:38:57;;;;;;;44.13;24.70;;;384.10;1254.40;;;;;;4821357;29;20048;-71
2021/03/03 08:41:26;;;;;;;33.90;21.27;;;384.50;1228.80;;;;;;4821633;29;20122;-73
2021/03/03 08:44:05;;;;;;;33.60;21.58;;;384.60;1228.80;;;;;;4821283;29;20038;-73
2021/03/03 08:46:31;;;;;;;32.03;21.45;;;384.90;1203.20;;;;;;4821463;29;20361;-74
2021/03/03 08:48:56;;;;;;;36.60;20.15;;;409.80;1203.20;;;;;;4822962;29;20095;-73
2021/03/03 08:51:44;;;;;;;37.95;21.52;;;410.00;1177.60;;;;;;4823189;29;20477;-74
2021/03/03 08:54:16;;;;;;;41.25;21.38;;;410.20;1177.60;;;;;;4822618;29;20034;-74
2021/03/03 08:56:52;;;;;;;38.20;21.25;;;410.40;1152.00;;;;;;4823155;29;20113;-73
2021/03/03 08:59:36;;;;;;;39.33;19.98;;;435.20;1126.40;;;;;;4823150;29;20039;-70
2021/03/03 09:04:45;;;;;;;35.90;19.63;;;435.60;1100.80;;;;;;4823067;29;20068;-74
2021/03/03 09:07:21;;;;;;;33.50;19.65;;;435.80;1100.80;;;;;;4822927;29;20152;-72
2021/03/03 09:10:04;;;;;;;30.13;19.42;;;436.00;1049.60;;;;;;4822062;29;20042;-73
2021/03/03 09:12:32;;;;;;;33.47;17.95;;;436.10;1049.60;;;;;;4822814;29;20069;-74
2021/03/03 09:15:00;;;;;;;26.80;18.15;;;460.80;1075.20;;;;;;4827446;29;20041;-74
2021/03/03 09:17:31;;;;;;;33.97;17.42;;;460.90;1049.60;;;;;;4917409;29;20429;-74
2021/03/03 09:19:59;;;;;;;31.02;16.15;;;461.10;1049.60;;;;;;4917375;29;20028;-72
2021/03/03 09:22:24;;;;;;;23.38;17.63;;;461.30;998.40;;;;;;4917045;29;20039;-74
2021/03/03 09:24:52;;;;;;;30.27;17.42;;;461.40;998.40;;;;;;4917418;29;20491;-71
2021/03/03 09:27:20;;;;;;;26.50;16.70;;;461.50;998.40;;;;;;4917483;29;20028;-74
2021/03/03 09:29:46;;;;;;;37.58;19.20;;;461.60;998.40;;;;;;4916740;29;20043;-73
2021/03/03 09:32:20;;;;;;;32.78;17.33;;;486.40;972.80;;;;;;4916955;29;20394;-73
2021/03/03 09:34:47;;;;;;;31.63;16.98;;;486.40;947.20;;;;;;4917386;29;20044;-72
2021/03/03 09:37:13;;;;;;;31.73;16.48;;;486.50;947.20;;;;;;4915903;29;20240;-72
2021/03/03 09:39:39;;;;;;;30.48;15.82;;;486.60;947.20;;;;;;4916264;29;20032;-73
2021/03/03 09:42:09;;;;;;;30.33;16.30;;;486.80;921.60;;;;;;4916793;29;20132;-73
2021/03/03 09:44:56;;;;;;;26.00;15.88;;;487.00;921.60;;;;;;4915293;29;20024;-71
2021/03/03 09:47:34;;;;;;;28.52;16.35;;;487.10;896.00;;;;;;4916312;29;20028;-69
2021/03/03 09:50:18;;;;;;;26.73;17.15;;;487.20;896.00;;;;;;4915717;29;20025;-75
2021/03/03 09:52:49;;;;;;;36.72;15.43;;;487.20;896.00;;;;;;4916786;29;20394;-77
2021/03/03 09:55:17;;;;;;;28.98;14.45;;;512.00;870.40;;;;;;4915834;29;20060;-78
2021/03/03 09:57:52;;;;;;;27.50;14.05;;;487.30;844.80;;;;;;4916081;29;20034;-77
2021/03/03 10:00:24;;;;;;;23.95;14.45;;;512.00;844.80;;;;;;4915947;29;20017;-79
2021/03/03 10:02:54;;;;;;;34.03;16.10;;;512.00;844.80;;;;;;4916466;29;20050;-79
2021/03/03 10:05:22;;;;;;;29.45;15.10;;;512.10;844.80;;;;;;4916041;29;20023;-77
2021/03/03 10:08:03;;;;;;;25.90;13.30;;;512.30;819.20;;;;;;4915353;29;20062;-77
2021/03/03 10:10:32;;;;;;;24.00;14.18;;;512.40;819.20;;;;;;4913991;29;20036;-74
2021/03/03 10:12:58;;;;;;;30.58;12.15;;;512.50;793.60;;;;;;4915696;29;20385;-76
2021/03/03 10:15:36;;;;;;;30.60;12.35;;;512.50;793.60;;;;;;4916535;29;20028;-73
2021/03/03 10:18:10;;;;;;;22.58;12.02;;;512.70;768.00;;;;;;4916151;29;20024;-78
2021/03/03 10:20:39;;;;;;;18.23;13.20;;;512.70;768.00;;;;;;4915765;29;20028;-76
2021/03/03 10:23:09;;;;;;;20.77;14.15;;;512.80;768.00;;;;;;4915422;29;20029;-78
2021/03/03 10:25:44;;;;;;;18.00;12.50;;;512.80;742.40;;;;;;4915932;29;20032;-72
2021/03/03 10:28:25;;;;;;;19.88;14.00;;;512.90;742.40;;;;;;4916049;29;20108;-78
2021/03/03 10:30:58;;;;;;;20.30;13.40;;;512.90;742.40;;;;;;4913990;29;20504;-70
2021/03/03 10:33:28;;;;;;;18.95;13.75;;;512.90;742.40;;;;;;4911571;29;20044;-76
2021/03/03 10:35:56;;;;;;;24.02;13.73;;;512.90;742.40;;;;;;4915916;29;20039;-78
2021/03/03 10:38:23;;;;;;;24.65;16.15;;;537.60;793.60;;;;;;4915714;29;20175;-79
2021/03/03 10:40:51;;;;;;;23.90;14.38;;;537.60;793.60;;;;;;4915789;29;20034;-78
2021/03/03 10:43:22;;;;;;;20.75;12.68;;;537.70;768.00;;;;;;4915469;29;20031;-79
2021/03/03 10:46:09;;;;;;;21.48;13.02;;;537.70;768.00;;;;;;4914958;29;20024;-78
2021/03/03 10:48:35;;;;;;;20.67;12.93;;;537.90;768.00;;;;;;4915004;29;20036;-78
2021/03/03 10:51:03;;;;;;;23.48;12.73;;;538.00;793.60;;;;;;4912830;29;20489;-78
2021/03/03 10:53:47;;;;;;;17.77;12.68;;;538.10;768.00;;;;;;4917652;29;20047;-78
2021/03/03 10:56:30;;;;;;;16.80;12.32;;;538.10;742.40;;;;;;4918182;29;20039;-78
2021/03/03 10:58:58;;;;;;;16.58;11.25;;;538.20;768.00;;;;;;4915109;29;20028;-77
2021/03/03 11:01:39;;;;;;;19.10;11.85;;;538.20;742.40;;;;;;4918550;29;20032;-78
2021/03/03 11:04:05;;;;;;;24.33;12.68;;;538.30;768.00;;;;;;4916769;29;20489;-78
2021/03/03 11:06:35;;;;;;;24.48;12.13;;;538.30;742.40;;;;;;4918441;29;20024;-78
2021/03/03 11:09:07;;;;;;;19.25;11.07;;;538.40;742.40;;;;;;4918625;29;20036;-78
2021/03/03 11:11:33;;;;;;;19.05;11.80;;;538.40;716.80;;;;;;4918685;29;20379;-77
2021/03/03 11:13:58;;;;;;;16.02;11.85;;;538.40;716.80;;;;;;4918864;29;20032;-75
2021/03/03 11:16:24;;;;;;;24.52;11.05;;;538.40;716.80;;;;;;4919421;29;20028;-67
2021/03/03 11:18:50;;;;;;;37.85;12.90;;;538.40;716.80;;;;;;4919647;29;20552;-67
2021/03/03 11:21:16;;;;;;;22.33;11.10;;;538.40;716.80;;;;;;4918946;29;20035;-70
2021/03/03 11:23:42;;;;;;;24.80;12.23;;;538.40;716.80;;;;;;4919717;29;20386;-68
2021/03/03 11:26:08;;;;;;;19.25;10.32;;;538.40;716.80;;;;;;4919458;29;20032;-67
2021/03/03 11:28:33;;;;;;;23.17;11.18;;;538.40;716.80;;;;;;4919129;29;20047;-68
2021/03/03 11:31:04;;;;;;;23.77;12.10;;;538.40;716.80;;;;;;4920037;29;20032;-74
2021/03/03 11:33:49;;;;;;;13.88;10.13;;;538.40;716.80;;;;;;4918776;29;20067;-75
2021/03/03 11:39:36;;;;;;;17.33;11.23;;;563.20;742.40;;;;;;4919444;29;20032;-70
2021/03/03 11:42:02;;;;;;;17.60;11.32;;;563.20;742.40;;;;;;4919610;29;20029;-74
2021/03/03 11:44:28;;;;;;;24.80;11.65;;;563.30;742.40;;;;;;4918802;29;20021;-74
2021/03/03 11:46:54;;;;;;;33.38;11.32;;;563.30;716.80;;;;;;4919096;29;20390;-72
2021/03/03 11:49:19;;;;;;;27.55;12.43;;;563.30;716.80;;;;;;4918935;29;20068;-69
2021/03/03 11:51:47;;;;;;;21.35;11.60;;;563.30;742.40;;;;;;4918277;29;20028;-67
2021/03/03 11:54:12;;;;;;;24.38;12.18;;;563.30;716.80;;;;;;4918976;29;20043;-74
2021/03/03 11:56:38;;;;;;;22.05;13.57;;;563.40;742.40;;;;;;4919251;29;20370;-68
2021/03/03 11:59:04;;;;;;;21.13;12.40;;;563.30;716.80;;;;;;4918538;29;20390;-71
2021/03/03 12:01:30;;;;;;;28.55;13.07;;;563.30;742.40;;;;;;4918676;29;20024;-70
2021/03/03 12:03:56;;;;;;;19.67;12.07;;;563.40;742.40;;;;;;4917832;29;20033;-68
2021/03/03 12:06:22;;;;;;;17.42;12.52;;;563.30;716.80;;;;;;4918026;29;20103;-70
2021/03/03 12:08:48;;;;;;;21.10;12.25;;;563.40;716.80;;;;;;4918893;29;20040;-71
2021/03/03 12:11:13;;;;;;;39.78;12.93;;;563.40;742.40;;;;;;4918624;29;20034;-75